sensor_id;sensor_type;location;lat;lon;timestamp;pressure;altitude;pressure_sealevel;temperature;humidity
54920;BME280;63804;53.120;8.764;2023-03-01T00:01:26;103310.16;;;-0.95;65.48
54920;BME280;63804;53.120;8.764;2023-03-01T00:03:52;103301.25;;;-1.23;66.23
54920;BME280;63804;53.120;8.764;2023-03-01T00:06:18;103303.66;;;-1.43;67.22
54920;BME280;63804;53.120;8.764;2023-03-01T00:08:44;103309.59;;;-1.59;68.16
54920;BME280;63804;53.120;8.764;2023-03-01T00:11:13;103304.66;;;-1.30;67.37
54920;BME280;63804;53.120;8.764;2023-03-01T00:13:39;103304.91;;;-0.99;66.31
54920;BME280;63804;53.120;8.764;2023-03-01T00:16:11;103302.34;;;-0.92;65.64
54920;BME280;63804;53.120;8.764;2023-03-01T00:18:38;103299.75;;;-0.87;65.48
54920;BME280;63804;53.120;8.764;2023-03-01T00:21:04;103298.50;;;-1.35;66.31
54920;BME280;63804;53.120;8.764;2023-03-01T00:23:31;103288.25;;;-1.20;66.57
54920;BME280;63804;53.120;8.764;2023-03-01T00:25:57;103284.03;;;-0.98;65.88
54920;BME280;63804;53.120;8.764;2023-03-01T00:28:22;103291.59;;;-1.35;66.89
54920;BME280;63804;53.120;8.764;2023-03-01T00:30:48;103291.38;;;-1.56;67.70
54920;BME280;63804;53.120;8.764;2023-03-01T00:33:13;103292.09;;;-1.71;68.30
54920;BME280;63804;53.120;8.764;2023-03-01T00:35:39;103296.41;;;-1.74;68.91
54920;BME280;63804;53.120;8.764;2023-03-01T00:38:04;103286.06;;;-1.68;68.59
54920;BME280;63804;53.120;8.764;2023-03-01T00:40:32;103290.44;;;-1.63;68.47
54920;BME280;63804;53.120;8.764;2023-03-01T00:42:58;103290.41;;;-1.67;68.77
54920;BME280;63804;53.120;8.764;2023-03-01T00:45:24;103281.59;;;-1.80;69.33
54920;BME280;63804;53.120;8.764;2023-03-01T00:47:50;103286.78;;;-1.85;70.13
54920;BME280;63804;53.120;8.764;2023-03-01T00:50:16;103275.44;;;-1.88;70.05
54920;BME280;63804;53.120;8.764;2023-03-01T00:52:42;103281.47;;;-1.91;70.34
54920;BME280;63804;53.120;8.764;2023-03-01T00:55:08;103284.03;;;-1.94;70.18
54920;BME280;63804;53.120;8.764;2023-03-01T00:57:33;103279.75;;;-1.90;70.22
54920;BME280;63804;53.120;8.764;2023-03-01T00:59:59;103284.88;;;-1.96;70.28
54920;BME280;63804;53.120;8.764;2023-03-01T01:02:25;103290.16;;;-1.92;70.69
54920;BME280;63804;53.120;8.764;2023-03-01T01:04:51;103278.84;;;-1.94;70.35
54920;BME280;63804;53.120;8.764;2023-03-01T01:07:16;103277.97;;;-1.96;70.77
54920;BME280;63804;53.120;8.764;2023-03-01T01:09:42;103276.19;;;-1.97;70.91
54920;BME280;63804;53.120;8.764;2023-03-01T01:12:08;103284.09;;;-1.92;70.17
54920;BME280;63804;53.120;8.764;2023-03-01T01:14:35;103280.69;;;-1.84;70.20
54920;BME280;63804;53.120;8.764;2023-03-01T01:17:00;103277.88;;;-2.02;70.45
54920;BME280;63804;53.120;8.764;2023-03-01T01:19:26;103278.66;;;-2.08;70.91
54920;BME280;63804;53.120;8.764;2023-03-01T01:21:52;103269.28;;;-1.95;70.46
54920;BME280;63804;53.120;8.764;2023-03-01T01:24:18;103264.84;;;-2.04;70.45
54920;BME280;63804;53.120;8.764;2023-03-01T01:26:44;103270.94;;;-2.03;70.47
54920;BME280;63804;53.120;8.764;2023-03-01T01:29:10;103264.84;;;-2.04;70.33
54920;BME280;63804;53.120;8.764;2023-03-01T01:31:37;103258.66;;;-2.15;70.56
54920;BME280;63804;53.120;8.764;2023-03-01T01:34:05;103262.22;;;-2.07;70.56
54920;BME280;63804;53.120;8.764;2023-03-01T01:36:31;103250.06;;;-2.06;70.20
54920;BME280;63804;53.120;8.764;2023-03-01T01:38:57;103252.63;;;-2.08;70.12
54920;BME280;63804;53.120;8.764;2023-03-01T01:41:24;103251.72;;;-2.13;70.26
54920;BME280;63804;53.120;8.764;2023-03-01T01:44:15;103249.19;;;-2.05;70.23
54920;BME280;63804;53.120;8.764;2023-03-01T01:47:00;103244.06;;;-1.97;69.38
54920;BME280;63804;53.120;8.764;2023-03-01T01:52:17;103241.25;;;-2.16;70.05
54920;BME280;63804;53.120;8.764;2023-03-01T01:55:04;103232.63;;;-2.12;70.00
54920;BME280;63804;53.120;8.764;2023-03-01T01:57:39;103229.94;;;-2.19;70.16
54920;BME280;63804;53.120;8.764;2023-03-01T02:00:15;103230.72;;;-2.28;70.59
54920;BME280;63804;53.120;8.764;2023-03-01T02:02:41;103228.06;;;-2.34;70.75
54920;BME280;63804;53.120;8.764;2023-03-01T02:05:16;103226.34;;;-2.32;70.79
54920;BME280;63804;53.120;8.764;2023-03-01T02:07:46;103220.25;;;-2.34;70.88
54920;BME280;63804;53.120;8.764;2023-03-01T02:10:13;103218.56;;;-2.29;70.85
54920;BME280;63804;53.120;8.764;2023-03-01T02:12:39;103210.78;;;-2.25;70.56
54920;BME280;63804;53.120;8.764;2023-03-01T02:15:05;103209.09;;;-2.22;70.37
54920;BME280;63804;53.120;8.764;2023-03-01T02:17:31;103215.19;;;-2.20;70.40
54920;BME280;63804;53.120;8.764;2023-03-01T02:20:20;103216.84;;;-2.27;70.48
54920;BME280;63804;53.120;8.764;2023-03-01T02:22:47;103216.75;;;-2.38;71.02
54920;BME280;63804;53.120;8.764;2023-03-01T02:30:22;103207.97;;;-2.43;71.16
54920;BME280;63804;53.120;8.764;2023-03-01T02:32:51;103214.06;;;-2.42;71.01
54920;BME280;63804;53.120;8.764;2023-03-01T02:35:18;103212.34;;;-2.40;70.43
54920;BME280;63804;53.120;8.764;2023-03-01T02:37:44;103213.22;;;-2.38;70.48
54920;BME280;63804;53.120;8.764;2023-03-01T02:40:18;103209.72;;;-2.43;70.59
54920;BME280;63804;53.120;8.764;2023-03-01T02:42:51;103214.09;;;-2.41;70.57
54920;BME280;63804;53.120;8.764;2023-03-01T02:45:19;103206.31;;;-2.38;70.25
54920;BME280;63804;53.120;8.764;2023-03-01T02:47:44;103201.00;;;-2.48;70.85
54920;BME280;63804;53.120;8.764;2023-03-01T02:55:34;103203.72;;;-2.36;70.19
54920;BME280;63804;53.120;8.764;2023-03-01T02:58:02;103211.63;;;-2.27;69.84
54920;BME280;63804;53.120;8.764;2023-03-01T03:00:39;103201.38;;;-2.15;69.55
54920;BME280;63804;53.120;8.764;2023-03-01T03:03:16;103203.78;;;-2.33;70.04
54920;BME280;63804;53.120;8.764;2023-03-01T03:05:43;103214.09;;;-2.39;70.49
54920;BME280;63804;53.120;8.764;2023-03-01T03:08:08;103212.34;;;-2.42;70.76
54920;BME280;63804;53.120;8.764;2023-03-01T03:10:37;103205.41;;;-2.38;70.59
54920;BME280;63804;53.120;8.764;2023-03-01T03:13:09;103206.25;;;-2.45;70.57
54920;BME280;63804;53.120;8.764;2023-03-01T03:15:34;103199.22;;;-2.53;71.00
54920;BME280;63804;53.120;8.764;2023-03-01T03:18:06;103200.91;;;-2.56;71.31
54920;BME280;63804;53.120;8.764;2023-03-01T03:20:33;103197.66;;;-2.37;70.86
54920;BME280;63804;53.120;8.764;2023-03-01T03:22:59;103201.22;;;-2.30;70.90
54920;BME280;63804;53.120;8.764;2023-03-01T03:25:26;103203.69;;;-2.39;70.75
54920;BME280;63804;53.120;8.764;2023-03-01T03:27:53;103190.44;;;-2.59;71.17
54920;BME280;63804;53.120;8.764;2023-03-01T03:30:30;103190.44;;;-2.58;71.06
54920;BME280;63804;53.120;8.764;2023-03-01T03:32:57;103186.09;;;-2.60;70.85
54920;BME280;63804;53.120;8.764;2023-03-01T03:35:28;103181.72;;;-2.63;70.87
54920;BME280;63804;53.120;8.764;2023-03-01T03:37:56;103181.00;;;-2.53;70.39
54920;BME280;63804;53.120;8.764;2023-03-01T03:40:44;103177.38;;;-2.64;70.96
54920;BME280;63804;53.120;8.764;2023-03-01T03:43:13;103178.16;;;-2.72;70.75
54920;BME280;63804;53.120;8.764;2023-03-01T03:45:39;103173.78;;;-2.75;70.91
54920;BME280;63804;53.120;8.764;2023-03-01T03:48:06;103171.13;;;-2.80;70.77
54920;BME280;63804;53.120;8.764;2023-03-01T03:50:40;103167.75;;;-2.71;70.24
54920;BME280;63804;53.120;8.764;2023-03-01T03:53:08;103166.06;;;-2.67;70.12
54920;BME280;63804;53.120;8.764;2023-03-01T03:55:34;103164.28;;;-2.71;70.54
54920;BME280;63804;53.120;8.764;2023-03-01T03:58:02;103161.66;;;-2.73;70.67
54920;BME280;63804;53.120;8.764;2023-03-01T04:00:37;103163.34;;;-2.78;71.37
54920;BME280;63804;53.120;8.764;2023-03-01T04:03:02;103151.75;;;-2.30;69.73
54920;BME280;63804;53.120;8.764;2023-03-01T04:05:29;103156.34;;;-2.02;68.70
54920;BME280;63804;53.120;8.764;2023-03-01T04:07:54;103150.19;;;-2.11;68.79
54920;BME280;63804;53.120;8.764;2023-03-01T04:10:37;103156.94;;;-2.29;69.25
54920;BME280;63804;53.120;8.764;2023-03-01T04:13:04;103152.44;;;-2.45;69.87
54920;BME280;63804;53.120;8.764;2023-03-01T04:15:30;103156.66;;;-2.56;70.41
54920;BME280;63804;53.120;8.764;2023-03-01T04:17:57;103155.09;;;-2.39;69.74
54920;BME280;63804;53.120;8.764;2023-03-01T04:20:26;103157.13;;;-2.09;68.81
54920;BME280;63804;53.120;8.764;2023-03-01T04:25:23;103146.25;;;-2.56;69.55
54920;BME280;63804;53.120;8.764;2023-03-01T04:27:49;103151.59;;;-2.44;69.30
54920;BME280;63804;53.120;8.764;2023-03-01T04:30:15;103156.56;;;-2.64;69.72
54920;BME280;63804;53.120;8.764;2023-03-01T04:32:40;103155.47;;;-2.83;70.36
54920;BME280;63804;53.120;8.764;2023-03-01T04:35:06;103152.88;;;-2.83;70.58
54920;BME280;63804;53.120;8.764;2023-03-01T04:37:31;103150.97;;;-2.96;71.33
54920;BME280;63804;53.120;8.764;2023-03-01T04:39:57;103150.94;;;-2.99;71.48
54920;BME280;63804;53.120;8.764;2023-03-01T04:42:22;103150.13;;;-2.93;71.61
54920;BME280;63804;53.120;8.764;2023-03-01T04:44:48;103152.09;;;-2.74;71.39
54920;BME280;63804;53.120;8.764;2023-03-01T04:47:16;103146.47;;;-2.36;69.62
54920;BME280;63804;53.120;8.764;2023-03-01T04:49:42;103142.28;;;-2.22;68.89
54920;BME280;63804;53.120;8.764;2023-03-01T04:52:08;103137.81;;;-2.31;69.40
54920;BME280;63804;53.120;8.764;2023-03-01T04:54:35;103133.34;;;-2.47;69.76
54920;BME280;63804;53.120;8.764;2023-03-01T04:57:01;103133.97;;;-2.68;70.55
54920;BME280;63804;53.120;8.764;2023-03-01T04:59:27;103130.34;;;-2.81;71.23
54920;BME280;63804;53.120;8.764;2023-03-01T05:01:54;103134.69;;;-2.83;71.30
54920;BME280;63804;53.120;8.764;2023-03-01T05:04:25;103131.94;;;-2.95;71.89
54920;BME280;63804;53.120;8.764;2023-03-01T05:06:51;103129.34;;;-2.93;71.75
54920;BME280;63804;53.120;8.764;2023-03-01T05:09:18;103130.09;;;-3.01;71.98
54920;BME280;63804;53.120;8.764;2023-03-01T05:11:44;103129.34;;;-2.92;71.50
54920;BME280;63804;53.120;8.764;2023-03-01T05:14:10;103133.94;;;-2.71;70.36
54920;BME280;63804;53.120;8.764;2023-03-01T05:16:36;103127.97;;;-2.64;69.75
54920;BME280;63804;53.120;8.764;2023-03-01T05:19:03;103133.03;;;-2.76;69.82
54920;BME280;63804;53.120;8.764;2023-03-01T05:21:39;103144.34;;;-2.69;69.39
54920;BME280;63804;53.120;8.764;2023-03-01T05:24:25;103136.31;;;-2.88;70.38
54920;BME280;63804;53.120;8.764;2023-03-01T05:26:51;103136.28;;;-2.92;70.79
54920;BME280;63804;53.120;8.764;2023-03-01T05:29:18;103131.78;;;-3.04;71.27
54920;BME280;63804;53.120;8.764;2023-03-01T05:31:59;103139.72;;;-2.95;71.26
54920;BME280;63804;53.120;8.764;2023-03-01T05:34:31;103133.53;;;-3.03;71.40
54920;BME280;63804;53.120;8.764;2023-03-01T05:36:57;103138.78;;;-3.02;71.67
54920;BME280;63804;53.120;8.764;2023-03-01T05:39:24;103137.03;;;-3.01;71.77
54920;BME280;63804;53.120;8.764;2023-03-01T05:42:00;103140.38;;;-3.11;72.33
54920;BME280;63804;53.120;8.764;2023-03-01T05:44:28;103136.72;;;-3.26;73.07
54920;BME280;63804;53.120;8.764;2023-03-01T05:46:54;103136.88;;;-3.13;72.75
54920;BME280;63804;53.120;8.764;2023-03-01T05:49:20;103137.81;;;-3.10;72.19
54920;BME280;63804;53.120;8.764;2023-03-01T05:51:51;103131.84;;;-3.01;71.88
54920;BME280;63804;53.120;8.764;2023-03-01T05:54:17;103123.25;;;-2.94;71.14
54920;BME280;63804;53.120;8.764;2023-03-01T05:56:43;103130.94;;;-3.05;71.39
54920;BME280;63804;53.120;8.764;2023-03-01T05:59:09;103143.03;;;-3.07;71.78
54920;BME280;63804;53.120;8.764;2023-03-01T06:01:35;103137.81;;;-3.10;72.24
54920;BME280;63804;53.120;8.764;2023-03-01T06:04:02;103138.56;;;-3.15;72.18
54920;BME280;63804;53.120;8.764;2023-03-01T06:06:28;103141.22;;;-3.11;72.21
54920;BME280;63804;53.120;8.764;2023-03-01T06:08:53;103137.03;;;-3.01;72.18
54920;BME280;63804;53.120;8.764;2023-03-01T06:11:20;103144.44;;;-2.62;70.58
54920;BME280;63804;53.120;8.764;2023-03-01T06:13:46;103130.81;;;-2.39;69.29
54920;BME280;63804;53.120;8.764;2023-03-01T06:16:13;103140.28;;;-2.46;69.73
54920;BME280;63804;53.120;8.764;2023-03-01T06:18:38;103145.31;;;-2.63;70.57
54920;BME280;63804;53.120;8.764;2023-03-01T06:21:05;103147.59;;;-2.90;71.13
54920;BME280;63804;53.120;8.764;2023-03-01T06:23:31;103145.34;;;-2.60;70.43
54920;BME280;63804;53.120;8.764;2023-03-01T06:25:57;103152.53;;;-2.37;69.79
54920;BME280;63804;53.120;8.764;2023-03-01T06:28:22;103157.69;;;-2.42;69.61
54920;BME280;63804;53.120;8.764;2023-03-01T06:30:49;103150.97;;;-2.20;69.54
54920;BME280;63804;53.120;8.764;2023-03-01T06:33:15;103152.00;;;-2.01;68.83
54920;BME280;63804;53.120;8.764;2023-03-01T06:35:41;103147.63;;;-2.07;69.12
54920;BME280;63804;53.120;8.764;2023-03-01T06:38:07;103138.81;;;-2.21;69.50
54920;BME280;63804;53.120;8.764;2023-03-01T06:40:32;103140.59;;;-2.15;69.80
54920;BME280;63804;53.120;8.764;2023-03-01T06:43:00;103145.06;;;-2.02;69.02
54920;BME280;63804;53.120;8.764;2023-03-01T06:45:26;103144.56;;;-2.51;70.41
54920;BME280;63804;53.120;8.764;2023-03-01T06:47:51;103140.84;;;-2.76;71.61
54920;BME280;63804;53.120;8.764;2023-03-01T06:50:17;103143.31;;;-2.85;72.38
54920;BME280;63804;53.120;8.764;2023-03-01T06:52:44;103142.47;;;-2.83;72.75
54920;BME280;63804;53.120;8.764;2023-03-01T06:55:11;103150.44;;;-2.69;72.77
54920;BME280;63804;53.120;8.764;2023-03-01T06:57:37;103147.25;;;-2.45;72.10
54920;BME280;63804;53.120;8.764;2023-03-01T07:00:05;103143.19;;;-2.15;70.93
54920;BME280;63804;53.120;8.764;2023-03-01T07:02:32;103139.13;;;-1.87;70.22
54920;BME280;63804;53.120;8.764;2023-03-01T07:04:57;103149.59;;;-1.78;69.55
54920;BME280;63804;53.120;8.764;2023-03-01T07:07:23;103151.41;;;-1.72;70.16
54920;BME280;63804;53.120;8.764;2023-03-01T07:09:49;103151.59;;;-1.46;69.15
54920;BME280;63804;53.120;8.764;2023-03-01T07:12:15;103159.47;;;-1.34;68.55
54920;BME280;63804;53.120;8.764;2023-03-01T07:14:40;103161.78;;;-1.74;69.52
54920;BME280;63804;53.120;8.764;2023-03-01T07:17:06;103165.97;;;-1.94;70.87
54920;BME280;63804;53.120;8.764;2023-03-01T07:19:32;103168.00;;;-1.57;70.17
54920;BME280;63804;53.120;8.764;2023-03-01T07:21:57;103154.25;;;-1.33;69.38
54920;BME280;63804;53.120;8.764;2023-03-01T07:24:23;103147.16;;;-1.55;70.23
54920;BME280;63804;53.120;8.764;2023-03-01T07:26:50;103150.63;;;-1.55;70.38
54920;BME280;63804;53.120;8.764;2023-03-01T07:29:15;103148.97;;;-1.45;70.78
54920;BME280;63804;53.120;8.764;2023-03-01T07:31:41;103153.41;;;-1.30;70.58
54920;BME280;63804;53.120;8.764;2023-03-01T07:34:06;103149.84;;;-1.43;71.31
54920;BME280;63804;53.120;8.764;2023-03-01T07:36:32;103148.28;;;-1.19;71.23
54920;BME280;63804;53.120;8.764;2023-03-01T07:38:58;103147.59;;;-0.82;69.69
54920;BME280;63804;53.120;8.764;2023-03-01T07:41:23;103150.28;;;-0.62;69.03
54920;BME280;63804;53.120;8.764;2023-03-01T07:43:49;103151.97;;;-0.64;69.19
54920;BME280;63804;53.120;8.764;2023-03-01T07:46:14;103157.28;;;-0.47;69.02
54920;BME280;63804;53.120;8.764;2023-03-01T07:48:39;103151.16;;;-0.44;68.77
54920;BME280;63804;53.120;8.764;2023-03-01T07:51:06;103154.66;;;-0.36;68.27
54920;BME280;63804;53.120;8.764;2023-03-01T07:53:32;103154.69;;;-0.29;68.25
54920;BME280;63804;53.120;8.764;2023-03-01T07:56:07;103157.31;;;-0.13;68.02
54920;BME280;63804;53.120;8.764;2023-03-01T07:58:34;103144.28;;;-0.07;67.56
54920;BME280;63804;53.120;8.764;2023-03-01T08:01:02;103137.31;;;-0.11;67.69
54920;BME280;63804;53.120;8.764;2023-03-01T08:03:27;103126.00;;;-0.16;67.57
54920;BME280;63804;53.120;8.764;2023-03-01T08:05:53;103129.47;;;-0.20;68.00
54920;BME280;63804;53.120;8.764;2023-03-01T08:08:18;103139.91;;;-0.17;68.27
54920;BME280;63804;53.120;8.764;2023-03-01T08:10:44;103139.06;;;-0.16;68.31
54920;BME280;63804;53.120;8.764;2023-03-01T08:13:15;103139.06;;;-0.12;68.39
54920;BME280;63804;53.120;8.764;2023-03-01T08:15:41;103133.81;;;-0.12;68.74
54920;BME280;63804;53.120;8.764;2023-03-01T08:18:06;103132.94;;;0.17;67.80
54920;BME280;63804;53.120;8.764;2023-03-01T08:20:32;103126.00;;;0.37;67.34
54920;BME280;63804;53.120;8.764;2023-03-01T08:22:58;103129.44;;;0.47;67.15
54920;BME280;63804;53.120;8.764;2023-03-01T08:25:23;103134.69;;;0.30;67.39
54920;BME280;63804;53.120;8.764;2023-03-01T08:27:48;103131.22;;;0.40;67.62
54920;BME280;63804;53.120;8.764;2023-03-01T08:30:14;103132.94;;;0.60;67.16
54920;BME280;63804;53.120;8.764;2023-03-01T08:32:40;103128.56;;;0.60;67.01
54920;BME280;63804;53.120;8.764;2023-03-01T08:35:05;103123.34;;;0.42;68.10
54920;BME280;63804;53.120;8.764;2023-03-01T08:37:31;103125.94;;;0.57;67.93
54920;BME280;63804;53.120;8.764;2023-03-01T08:39:59;103127.69;;;0.67;67.68
54920;BME280;63804;53.120;8.764;2023-03-01T08:42:25;103123.25;;;0.91;67.36
54920;BME280;63804;53.120;8.764;2023-03-01T08:44:51;103117.06;;;1.04;66.95
54920;BME280;63804;53.120;8.764;2023-03-01T08:47:16;103112.72;;;1.00;66.70
54920;BME280;63804;53.120;8.764;2023-03-01T08:49:42;103120.50;;;1.15;66.65
54920;BME280;63804;53.120;8.764;2023-03-01T08:52:07;103112.59;;;1.29;66.35
54920;BME280;63804;53.120;8.764;2023-03-01T08:54:33;103112.53;;;1.38;66.48
54920;BME280;63804;53.120;8.764;2023-03-01T08:57:01;103119.53;;;1.41;66.32
54920;BME280;63804;53.120;8.764;2023-03-01T08:59:27;103115.97;;;1.51;66.43
54920;BME280;63804;53.120;8.764;2023-03-01T09:01:54;103108.88;;;1.69;66.43
54920;BME280;63804;53.120;8.764;2023-03-01T09:04:20;103107.97;;;1.71;66.14
54920;BME280;63804;53.120;8.764;2023-03-01T09:06:45;103105.34;;;1.73;66.03
54920;BME280;63804;53.120;8.764;2023-03-01T09:09:13;103103.56;;;1.79;66.08
54920;BME280;63804;53.120;8.764;2023-03-01T09:11:40;103096.50;;;1.87;65.71
54920;BME280;63804;53.120;8.764;2023-03-01T09:14:05;103098.16;;;1.99;65.45
54920;BME280;63804;53.120;8.764;2023-03-01T09:16:31;103094.56;;;2.12;64.70
54920;BME280;63804;53.120;8.764;2023-03-01T09:19:02;103100.53;;;2.28;64.23
54920;BME280;63804;53.120;8.764;2023-03-01T09:21:28;103101.38;;;2.27;63.63
54920;BME280;63804;53.120;8.764;2023-03-01T09:23:56;103098.72;;;2.30;63.46
54920;BME280;63804;53.120;8.764;2023-03-01T09:26:23;103108.34;;;2.33;63.55
54920;BME280;63804;53.120;8.764;2023-03-01T09:28:51;103108.25;;;2.40;62.56
54920;BME280;63804;53.120;8.764;2023-03-01T09:31:25;103110.88;;;2.40;61.90
54920;BME280;63804;53.120;8.764;2023-03-01T09:33:52;103106.59;;;2.30;62.39
54920;BME280;63804;53.120;8.764;2023-03-01T09:36:21;103100.53;;;2.28;62.45
54920;BME280;63804;53.120;8.764;2023-03-01T09:38:47;103101.34;;;2.32;62.43
54920;BME280;63804;53.120;8.764;2023-03-01T09:43:51;103103.06;;;2.36;61.07
54920;BME280;63804;53.120;8.764;2023-03-01T09:46:23;103110.00;;;2.43;61.65
54920;BME280;63804;53.120;8.764;2023-03-01T09:48:58;103104.69;;;2.46;60.26
54920;BME280;63804;53.120;8.764;2023-03-01T09:51:33;103109.06;;;2.50;59.30
54920;BME280;63804;53.120;8.764;2023-03-01T09:54:02;103105.53;;;2.50;60.14
54920;BME280;63804;53.120;8.764;2023-03-01T09:56:40;103108.03;;;2.60;60.01
54920;BME280;63804;53.120;8.764;2023-03-01T10:01:43;103105.34;;;2.68;58.31
54920;BME280;63804;53.120;8.764;2023-03-01T10:09:21;103106.00;;;2.87;58.13
54920;BME280;63804;53.120;8.764;2023-03-01T10:11:52;103099.03;;;2.83;58.17
54920;BME280;63804;53.120;8.764;2023-03-01T10:17:14;103085.06;;;2.82;55.33
54920;BME280;63804;53.120;8.764;2023-03-01T10:19:44;103084.97;;;2.90;56.32
54920;BME280;63804;53.120;8.764;2023-03-01T10:22:18;103083.94;;;3.02;55.63
54920;BME280;63804;53.120;8.764;2023-03-01T10:24:46;103087.44;;;3.04;55.39
54920;BME280;63804;53.120;8.764;2023-03-01T10:27:21;103083.00;;;3.06;54.44
54920;BME280;63804;53.120;8.764;2023-03-01T10:29:49;103086.50;;;3.06;55.36
54920;BME280;63804;53.120;8.764;2023-03-01T10:32:20;103076.81;;;3.10;56.25
54920;BME280;63804;53.120;8.764;2023-03-01T10:34:47;103082.03;;;3.13;57.08
54920;BME280;63804;53.120;8.764;2023-03-01T10:37:16;103086.31;;;3.20;57.29
54920;BME280;63804;53.120;8.764;2023-03-01T10:40:09;103079.16;;;3.30;57.57
54920;BME280;63804;53.120;8.764;2023-03-01T10:42:40;103079.03;;;3.42;57.48
54920;BME280;63804;53.120;8.764;2023-03-01T10:45:16;103070.19;;;3.46;57.67
54920;BME280;63804;53.120;8.764;2023-03-01T10:47:42;103070.13;;;3.49;58.46
54920;BME280;63804;53.120;8.764;2023-03-01T10:50:19;103071.94;;;3.47;58.67
54920;BME280;63804;53.120;8.764;2023-03-01T10:52:57;103064.91;;;3.48;59.00
54920;BME280;63804;53.120;8.764;2023-03-01T10:55:38;103077.69;;;3.71;59.13
54920;BME280;63804;53.120;8.764;2023-03-01T10:58:22;103076.50;;;3.93;59.24
54920;BME280;63804;53.120;8.764;2023-03-01T11:00:54;103068.47;;;4.01;59.04
54920;BME280;63804;53.120;8.764;2023-03-01T11:03:23;103073.88;;;3.92;58.57
54920;BME280;63804;53.120;8.764;2023-03-01T11:13:30;103067.16;;;4.25;58.45
54920;BME280;63804;53.120;8.764;2023-03-01T11:16:06;103068.69;;;4.38;58.29
54920;BME280;63804;53.120;8.764;2023-03-01T11:18:33;103069.41;;;4.45;58.07
54920;BME280;63804;53.120;8.764;2023-03-01T11:20:59;103061.25;;;4.58;57.95
54920;BME280;63804;53.120;8.764;2023-03-01T11:23:28;103060.25;;;4.66;57.98
54920;BME280;63804;53.120;8.764;2023-03-01T11:26:01;103058.31;;;4.74;58.04
54920;BME280;63804;53.120;8.764;2023-03-01T11:28:29;103059.06;;;4.79;58.17
54920;BME280;63804;53.120;8.764;2023-03-01T11:31:10;103059.94;;;4.81;58.27
54920;BME280;63804;53.120;8.764;2023-03-01T11:33:55;103056.69;;;4.68;58.48
54920;BME280;63804;53.120;8.764;2023-03-01T11:36:31;103054.00;;;4.70;58.74
54920;BME280;63804;53.120;8.764;2023-03-01T11:39:03;103053.81;;;4.79;58.51
54920;BME280;63804;53.120;8.764;2023-03-01T11:41:32;103047.84;;;4.71;58.84
54920;BME280;63804;53.120;8.764;2023-03-01T11:44:25;103046.00;;;4.74;59.26
54920;BME280;63804;53.120;8.764;2023-03-01T12:03:55;103031.56;;;4.94;58.89
54920;BME280;63804;53.120;8.764;2023-03-01T12:11:43;103024.00;;;5.19;58.57
54920;BME280;63804;53.120;8.764;2023-03-01T12:22:42;103010.34;;;5.00;59.30
54920;BME280;63804;53.120;8.764;2023-03-01T12:25:16;103004.28;;;4.96;59.60
54920;BME280;63804;53.120;8.764;2023-03-01T12:35:55;102996.22;;;5.04;60.61
54920;BME280;63804;53.120;8.764;2023-03-01T12:38:48;102992.66;;;5.05;59.87
54920;BME280;63804;53.120;8.764;2023-03-01T12:41:28;102984.09;;;4.97;60.02
54920;BME280;63804;53.120;8.764;2023-03-01T12:49:23;102981.25;;;5.06;59.82
54920;BME280;63804;53.120;8.764;2023-03-01T12:51:56;102969.75;;;5.08;59.70
54920;BME280;63804;53.120;8.764;2023-03-01T12:54:30;102972.44;;;5.07;59.47
54920;BME280;63804;53.120;8.764;2023-03-01T12:57:09;102971.59;;;5.06;59.30
54920;BME280;63804;53.120;8.764;2023-03-01T13:00:02;102965.53;;;5.01;59.51
54920;BME280;63804;53.120;8.764;2023-03-01T13:02:45;102966.22;;;5.09;59.60
54920;BME280;63804;53.120;8.764;2023-03-01T13:05:24;102959.22;;;5.08;59.82
54920;BME280;63804;53.120;8.764;2023-03-01T13:10:34;102959.22;;;5.08;60.13
54920;BME280;63804;53.120;8.764;2023-03-01T13:15:41;102946.78;;;5.15;60.02
54920;BME280;63804;53.120;8.764;2023-03-01T13:23:13;102941.38;;;5.21;60.13
54920;BME280;63804;53.120;8.764;2023-03-01T13:26:03;102932.47;;;5.25;60.21
54920;BME280;63804;53.120;8.764;2023-03-01T13:28:38;102930.72;;;5.26;60.21
54920;BME280;63804;53.120;8.764;2023-03-01T13:31:11;102930.53;;;5.33;60.22
54920;BME280;63804;53.120;8.764;2023-03-01T13:33:57;102936.72;;;5.31;60.08
54920;BME280;63804;53.120;8.764;2023-03-01T13:39:03;102925.94;;;5.40;59.37
54920;BME280;63804;53.120;8.764;2023-03-01T13:46:50;102914.53;;;5.40;59.36
54920;BME280;63804;53.120;8.764;2023-03-01T13:49:19;102911.81;;;5.44;59.76
54920;BME280;63804;53.120;8.764;2023-03-01T13:51:47;102909.06;;;5.47;59.77
54920;BME280;63804;53.120;8.764;2023-03-01T13:54:15;102919.53;;;5.50;59.58
54920;BME280;63804;53.120;8.764;2023-03-01T13:56:41;102912.41;;;5.55;59.91
54920;BME280;63804;53.120;8.764;2023-03-01T13:59:17;102907.13;;;5.55;59.45
54920;BME280;63804;53.120;8.764;2023-03-01T14:01:43;102910.75;;;5.50;59.76
54920;BME280;63804;53.120;8.764;2023-03-01T14:04:28;102904.50;;;5.54;59.17
54920;BME280;63804;53.120;8.764;2023-03-01T14:07:12;102898.38;;;5.53;59.41
54920;BME280;63804;53.120;8.764;2023-03-01T14:09:44;102891.25;;;5.57;59.33
54920;BME280;63804;53.120;8.764;2023-03-01T14:14:43;102892.06;;;5.59;59.29
54920;BME280;63804;53.120;8.764;2023-03-01T14:19:47;102882.28;;;5.63;59.19
54920;BME280;63804;53.120;8.764;2023-03-01T14:22:20;102884.94;;;5.63;58.80
54920;BME280;63804;53.120;8.764;2023-03-01T14:24:50;102877.03;;;5.63;59.19
54920;BME280;63804;53.120;8.764;2023-03-01T14:27:17;102877.78;;;5.68;59.10
54920;BME280;63804;53.120;8.764;2023-03-01T14:29:43;102868.94;;;5.69;59.01
54920;BME280;63804;53.120;8.764;2023-03-01T14:32:30;102867.22;;;5.68;58.70
54920;BME280;63804;53.120;8.764;2023-03-01T14:34:57;102867.09;;;5.72;58.96
54920;BME280;63804;53.120;8.764;2023-03-01T14:37:29;102852.28;;;5.68;58.77
54920;BME280;63804;53.120;8.764;2023-03-01T14:39:57;102857.50;;;5.70;58.83
54920;BME280;63804;53.120;8.764;2023-03-01T14:42:26;102846.00;;;5.72;59.15
54920;BME280;63804;53.120;8.764;2023-03-01T14:44:54;102851.06;;;5.80;59.15
54920;BME280;63804;53.120;8.764;2023-03-01T14:47:28;102848.25;;;5.86;59.51